Time;durP1;ratioP1;P1;durP2;ratioP2;P2;SDS_P1;SDS_P2;PMS_P1;PMS_P2;Temp;Humidity;BMP_temperature;BMP_pressure;BME280_temperature;BME280_humidity;BME280_pressure;Samples;Min_cycle;Max_cycle;Signal;HPM_P1;HPM_P2
2022/05/26 00:03:47;;;;;;;14.90;11.73;;;;;;;;;;10123305;29;20417;-87
2022/05/26 00:08:49;;;;;;;13.82;11.30;;;;;;;;;;10124325;29;20448;-87
2022/05/26 00:13:53;;;;;;;12.55;10.50;;;;;;;;;;10123647;29;20417;-85
2022/05/26 00:18:55;;;;;;;16.42;12.10;;;;;;;;;;10123706;29;20508;-86
2022/05/26 00:23:58;;;;;;;18.98;12.68;;;;;;;;;;10123385;29;20930;-85
2022/05/26 00:29:01;;;;;;;17.05;12.35;;;;;;;;;;10122530;29;20453;-87
2022/05/26 00:34:04;;;;;;;16.83;12.40;;;;;;;;;;10123512;29;20414;-88
2022/05/26 00:39:08;;;;;;;16.83;12.97;;;;;;;;;;10123330;29;20421;-87
2022/05/26 00:44:11;;;;;;;18.67;12.67;;;;;;;;;;10123432;29;20903;-86
2022/05/26 00:49:40;;;;;;;14.90;12.38;;;;;;;;;;10647284;27;20380;-86
2022/05/26 00:54:44;;;;;;;15.05;12.27;;;;;;;;;;10639926;27;20764;-86
2022/05/26 00:59:52;;;;;;;17.00;13.30;;;;;;;;;;10668192;27;20430;-86
2022/05/26 01:04:59;;;;;;;17.30;12.53;;;;;;;;;;10642098;27;20408;-85
2022/05/26 01:10:01;;;;;;;15.83;12.30;;;;;;;;;;10638526;27;20426;-85
2022/05/26 01:15:06;;;;;;;18.77;12.20;;;;;;;;;;10645179;27;20408;-87
2022/05/26 01:20:33;;;;;;;17.80;12.73;;;;;;;;;;10644915;27;20507;-87
2022/05/26 01:26:08;;;;;;;17.30;12.10;;;;;;;;;;10640742;27;20424;-85
2022/05/26 01:31:30;;;;;;;14.48;11.95;;;;;;;;;;10638594;27;20744;-86
2022/05/26 01:36:37;;;;;;;14.48;11.82;;;;;;;;;;10641660;27;20393;-87
2022/05/26 01:41:57;;;;;;;15.10;11.90;;;;;;;;;;10642574;27;20410;-86
2022/05/26 01:47:09;;;;;;;15.83;11.87;;;;;;;;;;10640090;27;20423;-87
2022/05/26 01:52:16;;;;;;;13.15;11.73;;;;;;;;;;10643551;27;21821;-86
2022/05/26 01:57:23;;;;;;;18.53;12.20;;;;;;;;;;10628856;27;20400;-86
2022/05/26 02:02:31;;;;;;;13.73;11.77;;;;;;;;;;10611661;27;20408;-86
2022/05/26 02:07:38;;;;;;;12.68;11.38;;;;;;;;;;10616290;27;20512;-87
2022/05/26 02:12:44;;;;;;;15.90;11.77;;;;;;;;;;10614586;27;20411;-86
2022/05/26 02:17:51;;;;;;;14.93;11.68;;;;;;;;;;10615574;27;20752;-87
2022/05/26 02:22:57;;;;;;;14.40;12.15;;;;;;;;;;10609592;27;20424;-87
2022/05/26 02:27:59;;;;;;;16.48;11.68;;;;;;;;;;10588876;27;20426;-86
2022/05/26 02:33:05;;;;;;;15.60;12.45;;;;;;;;;;10595420;27;20419;-86
2022/05/26 02:38:11;;;;;;;12.93;11.53;;;;;;;;;;10579294;27;20393;-86
2022/05/26 02:43:17;;;;;;;15.57;12.10;;;;;;;;;;10577259;27;20417;-86
2022/05/26 02:48:39;;;;;;;19.25;11.52;;;;;;;;;;10593527;27;20973;-87
2022/05/26 02:53:44;;;;;;;15.52;11.02;;;;;;;;;;10600626;27;20403;-85
2022/05/26 02:59:04;;;;;;;15.18;10.77;;;;;;;;;;10572244;27;20900;-87
2022/05/26 03:04:12;;;;;;;13.98;10.85;;;;;;;;;;10582251;27;20401;-85
2022/05/26 03:09:14;;;;;;;14.90;10.73;;;;;;;;;;10610138;27;20523;-86
2022/05/26 03:14:18;;;;;;;13.60;10.93;;;;;;;;;;10613473;27;20748;-86
2022/05/26 03:19:21;;;;;;;13.45;11.10;;;;;;;;;;10613474;27;20487;-85
2022/05/26 03:24:23;;;;;;;16.17;10.95;;;;;;;;;;10595742;27;20405;-85
2022/05/26 03:29:25;;;;;;;13.65;10.70;;;;;;;;;;10612931;27;20505;-85
2022/05/26 03:45:09;;;;;;;13.80;9.75;;;;;;;;;;10612024;27;20565;-86
2022/05/26 03:50:12;;;;;;;10.10;8.90;;;;;;;;;;10607672;27;20396;-85
2022/05/26 03:55:14;;;;;;;11.63;8.77;;;;;;;;;;10592400;27;20396;-87
2022/05/26 04:00:23;;;;;;;13.55;8.70;;;;;;;;;;10611688;27;20481;-89
2022/05/26 04:05:26;;;;;;;11.02;8.45;;;;;;;;;;10599780;27;20499;-87
2022/05/26 04:10:29;;;;;;;10.82;8.90;;;;;;;;;;10605686;27;20400;-87
2022/05/26 04:15:32;;;;;;;14.98;9.82;;;;;;;;;;10609645;27;21241;-85
2022/05/26 04:20:35;;;;;;;14.35;9.90;;;;;;;;;;10608951;27;20407;-86
2022/05/26 04:25:37;;;;;;;16.55;10.48;;;;;;;;;;10600834;27;20406;-86
2022/05/26 04:30:39;;;;;;;18.08;12.10;;;;;;;;;;10605403;27;20503;-87
2022/05/26 04:35:42;;;;;;;18.38;12.02;;;;;;;;;;10610036;27;20400;-86
2022/05/26 04:40:45;;;;;;;16.40;11.50;;;;;;;;;;10608045;27;20401;-86
2022/05/26 04:45:46;;;;;;;16.77;11.15;;;;;;;;;;10609871;28;20413;-88
2022/05/26 04:50:50;;;;;;;17.58;11.27;;;;;;;;;;10611238;28;20752;-88
2022/05/26 04:55:56;;;;;;;16.55;10.70;;;;;;;;;;10611746;27;20398;-86
2022/05/26 05:00:58;;;;;;;14.63;10.32;;;;;;;;;;10599843;28;20522;-91
2022/05/26 05:06:01;;;;;;;15.37;10.50;;;;;;;;;;10611871;28;20409;-90
2022/05/26 05:11:03;;;;;;;16.33;11.00;;;;;;;;;;10594292;28;20468;-91
2022/05/26 05:16:10;;;;;;;14.77;10.83;;;;;;;;;;10592184;28;20571;-90
2022/05/26 05:21:16;;;;;;;14.77;9.98;;;;;;;;;;10586736;27;20486;-91
2022/05/26 05:26:20;;;;;;;13.27;9.50;;;;;;;;;;10591385;27;20467;-91
2022/05/26 05:31:26;;;;;;;14.48;9.27;;;;;;;;;;10583631;28;20406;-92
2022/05/26 05:36:34;;;;;;;12.38;9.10;;;;;;;;;;10596718;27;20887;-94
2022/05/26 05:41:36;;;;;;;12.53;9.60;;;;;;;;;;10605570;27;20506;-92
2022/05/26 05:51:57;;;;;;;15.30;9.70;;;;;;;;;;10621393;27;20747;-93
2022/05/26 05:57:00;;;;;;;13.57;9.60;;;;;;;;;;10616190;27;20408;-93
2022/05/26 06:02:02;;;;;;;16.27;9.18;;;;;;;;;;10611893;27;20404;-91
2022/05/26 06:07:06;;;;;;;13.77;9.70;;;;;;;;;;10615519;27;20848;-92
2022/05/26 06:12:17;;;;;;;13.77;8.83;;;;;;;;;;10615418;27;20453;-94
2022/05/26 06:17:19;;;;;;;14.95;9.38;;;;;;;;;;10616286;27;20401;-91
2022/05/26 06:22:24;;;;;;;15.10;9.05;;;;;;;;;;10614634;27;20421;-91
2022/05/26 06:38:07;;;;;;;14.93;9.18;;;;;;;;;;10609843;27;20409;-91
2022/05/26 06:43:09;;;;;;;21.75;11.10;;;;;;;;;;10609968;27;20449;-91
2022/05/26 06:48:11;;;;;;;18.35;10.88;;;;;;;;;;10612566;27;20420;-90
2022/05/26 06:53:14;;;;;;;20.30;10.82;;;;;;;;;;10612515;27;21158;-89
2022/05/26 06:58:16;;;;;;;17.63;10.40;;;;;;;;;;10610824;27;20407;-90
2022/05/26 07:03:18;;;;;;;20.03;10.97;;;;;;;;;;10611813;27;20396;-89
2022/05/26 07:08:21;;;;;;;22.20;11.23;;;;;;;;;;10611084;27;20417;-89
2022/05/26 07:13:24;;;;;;;19.48;12.00;;;;;;;;;;10609502;27;20880;-86
2022/05/26 07:18:26;;;;;;;21.88;12.65;;;;;;;;;;10610296;27;20805;-85
2022/05/26 07:23:29;;;;;;;21.93;12.80;;;;;;;;;;10610454;27;20413;-85
2022/05/26 07:28:33;;;;;;;19.95;12.90;;;;;;;;;;10608369;27;20421;-86
2022/05/26 07:33:34;;;;;;;22.10;12.17;;;;;;;;;;10606817;27;20411;-89
2022/05/26 07:43:59;;;;;;;22.67;13.75;;;;;;;;;;10611025;27;20750;-89
2022/05/26 07:49:00;;;;;;;24.08;14.68;;;;;;;;;;10610322;27;20421;-90
2022/05/26 07:54:04;;;;;;;19.17;12.18;;;;;;;;;;10609180;27;20404;-90
2022/05/26 07:59:06;;;;;;;22.13;12.93;;;;;;;;;;10606860;27;20484;-90
2022/05/26 08:04:08;;;;;;;23.95;13.07;;;;;;;;;;10610504;27;20393;-90
2022/05/26 08:09:11;;;;;;;18.67;10.80;;;;;;;;;;10608627;27;20412;-90
2022/05/26 08:14:13;;;;;;;18.67;10.30;;;;;;;;;;10609234;27;21221;-91
2022/05/26 08:19:15;;;;;;;17.83;10.20;;;;;;;;;;10609402;27;20479;-89
2022/05/26 08:24:19;;;;;;;17.63;9.77;;;;;;;;;;10587828;27;20781;-90
2022/05/26 08:29:21;;;;;;;17.40;9.40;;;;;;;;;;10609297;27;20462;-92
2022/05/26 08:34:23;;;;;;;17.58;9.52;;;;;;;;;;10609082;27;20389;-90
2022/05/26 08:39:26;;;;;;;18.10;10.13;;;;;;;;;;10607064;27;20488;-92
2022/05/26 08:44:32;;;;;;;19.42;9.85;;;;;;;;;;10608433;27;20408;-90
2022/05/26 08:49:39;;;;;;;17.48;9.38;;;;;;;;;;10609173;28;20430;-90
2022/05/26 08:54:46;;;;;;;14.18;8.55;;;;;;;;;;10588685;27;20899;-91
2022/05/26 08:59:49;;;;;;;16.23;9.57;;;;;;;;;;10608679;28;20821;-90
2022/05/26 09:04:51;;;;;;;14.23;8.83;;;;;;;;;;10608845;28;20475;-90
2022/05/26 09:15:21;;;;;;;17.67;9.75;;;;;;;;;;10615117;27;20784;-90
2022/05/26 09:20:33;;;;;;;14.40;9.13;;;;;;;;;;10617124;27;20444;-89
2022/05/26 09:25:41;;;;;;;15.32;8.85;;;;;;;;;;10615587;27;20896;-90
2022/05/26 09:30:44;;;;;;;11.98;6.90;;;;;;;;;;10595123;27;20492;-92
2022/05/26 09:35:46;;;;;;;11.70;7.00;;;;;;;;;;10616306;27;20401;-90
2022/05/26 09:40:49;;;;;;;13.07;7.40;;;;;;;;;;10608647;27;20399;-90
2022/05/26 09:45:54;;;;;;;13.48;6.85;;;;;;;;;;10616434;27;20449;-90
2022/05/26 09:51:09;;;;;;;14.63;7.60;;;;;;;;;;10642902;27;20757;-89
2022/05/26 09:56:26;;;;;;;14.93;9.20;;;;;;;;;;10611612;27;20415;-89
2022/05/26 10:01:43;;;;;;;14.82;9.05;;;;;;;;;;10617359;27;20483;-91
2022/05/26 10:06:50;;;;;;;15.43;6.73;;;;;;;;;;10613039;27;20482;-90
2022/05/26 10:12:06;;;;;;;13.73;7.47;;;;;;;;;;10610708;27;20407;-89
2022/05/26 10:17:16;;;;;;;17.93;8.93;;;;;;;;;;10610623;27;20407;-89
2022/05/26 10:22:33;;;;;;;20.73;11.63;;;;;;;;;;10614380;27;20405;-90
2022/05/26 10:27:53;;;;;;;12.20;6.53;;;;;;;;;;10612439;27;20423;-90
2022/05/26 10:33:16;;;;;;;12.52;7.10;;;;;;;;;;10612516;27;20480;-91
2022/05/26 10:38:36;;;;;;;13.13;6.73;;;;;;;;;;10608882;27;20404;-89
2022/05/26 10:43:44;;;;;;;13.18;7.60;;;;;;;;;;10611573;27;20397;-89
2022/05/26 10:48:52;;;;;;;12.47;6.90;;;;;;;;;;10613083;27;20466;-89
2022/05/26 10:53:58;;;;;;;15.10;7.38;;;;;;;;;;10611736;27;20875;-90
2022/05/26 10:59:09;;;;;;;11.43;7.90;;;;;;;;;;10612852;27;20551;-90
2022/05/26 11:04:20;;;;;;;12.97;7.70;;;;;;;;;;10608971;27;20769;-88
2022/05/26 11:09:30;;;;;;;12.75;6.13;;;;;;;;;;10609903;27;20421;-89
2022/05/26 11:20:05;;;;;;;11.30;5.90;;;;;;;;;;10607347;27;20425;-90
2022/05/26 11:25:09;;;;;;;9.97;6.10;;;;;;;;;;10600410;27;20408;-91
2022/05/26 11:41:04;;;;;;;13.20;6.85;;;;;;;;;;10589896;27;20422;-91
2022/05/26 11:46:11;;;;;;;10.68;5.95;;;;;;;;;;10582892;27;20399;-90
2022/05/26 11:51:29;;;;;;;9.50;5.72;;;;;;;;;;10585814;27;20410;-90
2022/05/26 11:56:44;;;;;;;10.60;5.97;;;;;;;;;;10589381;27;20503;-89
2022/05/26 12:01:49;;;;;;;9.68;6.00;;;;;;;;;;10602533;27;20900;-90
2022/05/26 12:07:00;;;;;;;10.48;5.95;;;;;;;;;;10587234;27;20414;-89
2022/05/26 12:12:03;;;;;;;9.43;5.80;;;;;;;;;;10593397;27;20415;-89
2022/05/26 12:17:31;;;;;;;12.53;6.40;;;;;;;;;;10602929;27;20416;-91
2022/05/26 12:22:36;;;;;;;12.18;5.60;;;;;;;;;;10599268;27;20396;-89
2022/05/26 12:27:58;;;;;;;10.37;6.30;;;;;;;;;;10594808;27;20448;-89
2022/05/26 12:33:12;;;;;;;9.88;5.32;;;;;;;;;;10593096;27;20428;-88
2022/05/26 12:38:32;;;;;;;12.55;6.80;;;;;;;;;;10596414;27;20415;-90
2022/05/26 12:43:59;;;;;;;11.43;5.73;;;;;;;;;;10595408;27;20436;-90
2022/05/26 12:49:16;;;;;;;10.53;6.27;;;;;;;;;;10582690;28;20418;-89
2022/05/26 12:54:20;;;;;;;10.83;6.13;;;;;;;;;;10586327;27;20486;-89
2022/05/26 12:59:25;;;;;;;15.40;6.78;;;;;;;;;;10582571;28;20404;-89
2022/05/26 13:04:34;;;;;;;8.33;6.07;;;;;;;;;;10583314;28;20397;-90
2022/05/26 13:09:42;;;;;;;12.52;6.68;;;;;;;;;;10587645;27;20491;-88
2022/05/26 13:14:47;;;;;;;9.32;6.03;;;;;;;;;;10587168;28;20410;-89
2022/05/26 13:19:52;;;;;;;9.98;5.90;;;;;;;;;;10582678;28;20387;-89
2022/05/26 13:24:57;;;;;;;10.25;5.40;;;;;;;;;;10589940;28;20484;-90
2022/05/26 13:33:07;;;;;;;10.27;5.78;;;;;;;;;;10591858;28;20920;-90
2022/05/26 13:35:22;;;;;;;6.32;5.40;;;;;;;;;;10587947;28;20386;-90
2022/05/26 13:40:28;;;;;;;8.82;5.35;;;;;;;;;;10585804;27;20912;-90
2022/05/26 13:45:33;;;;;;;9.32;5.28;;;;;;;;;;10589222;27;20393;-91
2022/05/26 13:50:49;;;;;;;6.33;4.57;;;;;;;;;;10595370;28;20489;-92
2022/05/26 13:55:56;;;;;;;7.30;4.23;;;;;;;;;;10605866;27;20415;-92
2022/05/26 14:01:00;;;;;;;9.33;5.17;;;;;;;;;;10608306;27;20444;-91
2022/05/26 14:06:06;;;;;;;11.03;4.77;;;;;;;;;;10598986;27;20768;-92
2022/05/26 14:11:27;;;;;;;7.30;4.90;;;;;;;;;;10598089;27;20562;-90
2022/05/26 14:16:29;;;;;;;10.07;4.90;;;;;;;;;;10597086;27;20513;-89
2022/05/26 14:21:34;;;;;;;7.83;4.97;;;;;;;;;;10610309;27;20425;-91
2022/05/26 14:26:39;;;;;;;11.63;5.20;;;;;;;;;;10599959;27;20409;-90
2022/05/26 14:31:56;;;;;;;8.85;5.20;;;;;;;;;;10602467;27;20448;-91
2022/05/26 14:37:00;;;;;;;8.30;5.13;;;;;;;;;;10602360;27;20401;-90
2022/05/26 14:42:05;;;;;;;8.68;4.40;;;;;;;;;;10596905;27;20432;-89
2022/05/26 14:47:07;;;;;;;7.65;5.18;;;;;;;;;;10597093;27;20401;-89
2022/05/26 14:52:14;;;;;;;12.00;5.28;;;;;;;;;;10599949;27;20494;-89
2022/05/26 14:57:16;;;;;;;11.07;5.85;;;;;;;;;;10601285;27;20393;-89
2022/05/26 15:02:18;;;;;;;13.82;6.50;;;;;;;;;;10597393;27;20397;-91
2022/05/26 15:07:21;;;;;;;10.13;6.20;;;;;;;;;;10601610;27;20428;-89
2022/05/26 15:12:23;;;;;;;10.97;6.00;;;;;;;;;;10607413;27;20441;-90
2022/05/26 15:17:25;;;;;;;12.57;6.53;;;;;;;;;;10598385;27;20910;-88
2022/05/26 15:22:31;;;;;;;12.38;6.90;;;;;;;;;;10601849;27;20482;-89
2022/05/26 15:27:34;;;;;;;12.15;6.22;;;;;;;;;;10599654;27;20470;-91
2022/05/26 15:32:38;;;;;;;10.48;6.22;;;;;;;;;;10594328;27;20749;-91
2022/05/26 15:37:42;;;;;;;13.10;6.30;;;;;;;;;;10590422;27;20402;-91
2022/05/26 15:42:45;;;;;;;15.60;7.18;;;;;;;;;;10578440;27;20713;-91
2022/05/26 15:47:47;;;;;;;13.60;7.90;;;;;;;;;;10593820;27;20479;-90
2022/05/26 15:52:51;;;;;;;14.02;7.80;;;;;;;;;;10603973;27;20418;-89
2022/05/26 15:57:53;;;;;;;13.90;7.93;;;;;;;;;;10626199;27;20409;-89
2022/05/26 16:02:56;;;;;;;11.40;7.18;;;;;;;;;;10589907;27;20419;-90
2022/05/26 16:07:59;;;;;;;11.57;6.70;;;;;;;;;;10588849;27;20426;-90
2022/05/26 16:13:01;;;;;;;12.18;6.20;;;;;;;;;;10587046;27;20420;-92
2022/05/26 16:18:06;;;;;;;9.82;6.80;;;;;;;;;;10576452;27;20976;-90
2022/05/26 16:23:21;;;;;;;13.05;6.43;;;;;;;;;;10581587;27;20440;-90
2022/05/26 16:28:24;;;;;;;13.68;7.38;;;;;;;;;;10590369;27;20471;-90
2022/05/26 16:33:26;;;;;;;12.43;7.57;;;;;;;;;;10577312;27;20418;-77
2022/05/26 16:38:30;;;;;;;14.13;7.55;;;;;;;;;;10584548;27;20494;-91
2022/05/26 16:43:32;;;;;;;14.82;8.07;;;;;;;;;;10587666;27;20410;-96
2022/05/26 16:48:35;;;;;;;13.47;7.23;;;;;;;;;;10578347;27;20511;-89
2022/05/26 16:53:39;;;;;;;13.40;6.65;;;;;;;;;;10575330;27;20432;-87
2022/05/26 16:58:41;;;;;;;12.98;6.05;;;;;;;;;;10573783;28;20443;-87
2022/05/26 17:03:44;;;;;;;12.10;6.60;;;;;;;;;;10580188;27;20403;-87
2022/05/26 17:08:47;;;;;;;11.45;6.80;;;;;;;;;;10578871;27;21248;-87
2022/05/26 17:24:32;;;;;;;11.75;6.90;;;;;;;;;;10576059;27;20407;-88
2022/05/26 17:29:34;;;;;;;10.00;7.25;;;;;;;;;;10585908;27;20417;-88
2022/05/26 17:34:35;;;;;;;14.60;6.88;;;;;;;;;;10601533;27;20416;-87
2022/05/26 17:39:39;;;;;;;10.75;6.68;;;;;;;;;;10604274;27;20408;-86
2022/05/26 17:44:41;;;;;;;12.13;6.85;;;;;;;;;;10607463;27;20507;-88
2022/05/26 17:49:44;;;;;;;17.23;7.07;;;;;;;;;;10602394;27;20824;-89
2022/05/26 17:54:52;;;;;;;13.82;7.45;;;;;;;;;;10601289;27;20452;-90
2022/05/26 18:05:17;;;;;;;9.35;6.88;;;;;;;;;;10592647;27;20390;-91
2022/05/26 18:10:21;;;;;;;10.32;7.55;;;;;;;;;;10592898;27;20428;-91
2022/05/26 18:15:23;;;;;;;12.77;7.47;;;;;;;;;;10574509;27;20404;-89
2022/05/26 18:20:25;;;;;;;12.47;7.43;;;;;;;;;;10603281;27;20406;-91
2022/05/26 18:25:30;;;;;;;16.20;8.93;;;;;;;;;;10590929;27;20501;-93
2022/05/26 18:30:34;;;;;;;10.95;6.65;;;;;;;;;;10594043;27;20421;-92
2022/05/26 18:35:38;;;;;;;11.40;6.70;;;;;;;;;;10598406;27;20412;-93
2022/05/26 18:40:41;;;;;;;14.32;7.07;;;;;;;;;;10607374;27;20412;-91
2022/05/26 18:45:43;;;;;;;13.80;8.43;;;;;;;;;;10609731;27;20413;-93
2022/05/26 18:50:47;;;;;;;13.60;8.27;;;;;;;;;;10616133;27;20500;-91
2022/05/26 18:55:53;;;;;;;14.00;9.13;;;;;;;;;;10598096;27;20412;-92
2022/05/26 19:00:58;;;;;;;15.93;8.85;;;;;;;;;;10588662;27;20924;-92
2022/05/26 19:06:00;;;;;;;17.00;9.00;;;;;;;;;;10607986;27;20497;-92
2022/05/26 19:11:06;;;;;;;14.93;8.87;;;;;;;;;;10599480;27;21025;-92
2022/05/26 19:16:11;;;;;;;14.13;9.43;;;;;;;;;;10595953;27;20985;-92
2022/05/26 19:21:13;;;;;;;14.40;9.70;;;;;;;;;;10614942;27;20411;-91
2022/05/26 19:26:16;;;;;;;13.50;10.52;;;;;;;;;;10602043;27;20413;-93
2022/05/26 19:31:22;;;;;;;15.50;10.15;;;;;;;;;;10591898;27;20419;-91
2022/05/26 19:36:24;;;;;;;16.37;11.00;;;;;;;;;;10582675;27;20409;-92
2022/05/26 19:41:28;;;;;;;17.77;11.95;;;;;;;;;;10587222;27;20410;-92
2022/05/26 19:46:33;;;;;;;15.95;11.48;;;;;;;;;;10598011;27;20397;-91
2022/05/26 19:51:36;;;;;;;20.58;12.80;;;;;;;;;;10596548;27;20765;-90
2022/05/26 19:56:40;;;;;;;17.63;12.50;;;;;;;;;;10585460;27;20490;-91
2022/05/26 20:01:42;;;;;;;17.52;12.50;;;;;;;;;;10595110;27;20393;-92
2022/05/26 20:06:45;;;;;;;18.20;13.10;;;;;;;;;;10594177;27;20474;-90
2022/05/26 20:11:48;;;;;;;18.60;13.07;;;;;;;;;;10589790;27;20434;-91
2022/05/26 20:16:50;;;;;;;20.83;15.05;;;;;;;;;;10585339;27;20494;-91
2022/05/26 20:21:52;;;;;;;19.65;16.20;;;;;;;;;;10592656;27;20885;-90
2022/05/26 20:26:55;;;;;;;20.27;16.50;;;;;;;;;;10588547;27;21032;-91
2022/05/26 20:31:57;;;;;;;21.52;17.05;;;;;;;;;;10587522;27;20418;-92
2022/05/26 20:37:02;;;;;;;24.27;17.17;;;;;;;;;;10601852;27;20401;-91
2022/05/26 20:42:07;;;;;;;22.43;17.00;;;;;;;;;;10621601;27;20417;-92
2022/05/26 20:47:12;;;;;;;23.10;15.90;;;;;;;;;;10601584;27;20607;-92
2022/05/26 20:52:15;;;;;;;20.35;16.50;;;;;;;;;;10585756;27;20427;-91
2022/05/26 20:57:22;;;;;;;22.85;16.65;;;;;;;;;;10583298;27;20511;-92
2022/05/26 21:02:24;;;;;;;23.73;16.73;;;;;;;;;;10574673;27;20406;-93
2022/05/26 21:07:30;;;;;;;23.13;16.50;;;;;;;;;;10594566;27;20409;-92
2022/05/26 21:12:35;;;;;;;21.17;16.77;;;;;;;;;;10492590;22;20416;-82
2022/05/26 21:17:37;;;;;;;21.55;17.30;;;;;;;;;;10468733;28;20583;-81
2022/05/26 21:22:39;;;;;;;24.02;17.63;;;;;;;;;;10458705;28;20935;-81
2022/05/26 21:27:43;;;;;;;22.38;16.83;;;;;;;;;;10459164;28;20462;-81
2022/05/26 21:32:45;;;;;;;23.03;16.53;;;;;;;;;;10465675;28;20522;-81
2022/05/26 21:37:47;;;;;;;27.02;17.42;;;;;;;;;;10458985;28;20788;-81
2022/05/26 21:42:50;;;;;;;21.38;17.58;;;;;;;;;;10460131;28;20407;-82
2022/05/26 21:47:53;;;;;;;24.10;18.75;;;;;;;;;;10462168;28;20410;-81
2022/05/26 21:52:54;;;;;;;22.30;17.97;;;;;;;;;;10463078;28;20423;-81
2022/05/26 21:57:58;;;;;;;22.50;18.00;;;;;;;;;;10470445;28;20885;-82
2022/05/26 22:03:00;;;;;;;26.50;18.50;;;;;;;;;;10460423;28;20423;-82
2022/05/26 22:13:25;;;;;;;25.65;18.77;;;;;;;;;;10424327;28;20405;-82
2022/05/26 22:18:27;;;;;;;31.53;22.43;;;;;;;;;;10423372;28;20401;-82
2022/05/26 22:23:29;;;;;;;25.77;19.77;;;;;;;;;;10424400;28;20480;-82
2022/05/26 22:28:32;;;;;;;23.05;19.77;;;;;;;;;;10431272;28;20439;-82
2022/05/26 22:33:34;;;;;;;23.95;18.77;;;;;;;;;;10423999;28;20423;-82
2022/05/26 22:38:35;;;;;;;27.27;18.83;;;;;;;;;;10424445;28;20408;-82
2022/05/26 22:43:46;;;;;;;25.88;19.13;;;;;;;;;;10427024;28;20409;-82
2022/05/26 22:48:48;;;;;;;23.58;19.05;;;;;;;;;;10423617;28;20899;-82
2022/05/26 22:53:50;;;;;;;25.35;19.08;;;;;;;;;;10421849;28;20413;-82
2022/05/26 22:58:53;;;;;;;24.93;18.83;;;;;;;;;;10423715;28;20650;-83
2022/05/26 23:03:55;;;;;;;27.63;19.52;;;;;;;;;;10422889;28;20408;-82
2022/05/26 23:08:56;;;;;;;22.90;19.23;;;;;;;;;;10424735;28;20409;-82
2022/05/26 23:14:01;;;;;;;25.08;19.45;;;;;;;;;;10428468;28;20398;-82
2022/05/26 23:19:03;;;;;;;25.75;19.77;;;;;;;;;;10423798;28;20767;-82
2022/05/26 23:24:06;;;;;;;22.33;18.70;;;;;;;;;;10417795;28;20499;-83
2022/05/26 23:29:09;;;;;;;25.35;19.70;;;;;;;;;;10417815;28;20630;-83
2022/05/26 23:34:11;;;;;;;24.87;19.93;;;;;;;;;;10422821;28;20490;-83
2022/05/26 23:39:13;;;;;;;25.48;19.80;;;;;;;;;;10424992;28;20412;-83
2022/05/26 23:44:16;;;;;;;27.05;20.00;;;;;;;;;;10423651;28;20400;-82
2022/05/26 23:49:18;;;;;;;28.10;19.97;;;;;;;;;;10419794;28;20410;-83
2022/05/26 23:54:20;;;;;;;28.83;19.67;;;;;;;;;;10423699;28;20903;-83
2022/05/26 23:59:23;;;;;;;28.00;19.47;;;;;;;;;;10424853;28;20925;-82
